Terminal Aerodrome Forecast
Issued by NWS

Home | Current Version | Previous Version | Graphics & Text | Print | Product List | Glossary On
Versions: 1 2 3 4 5 6 7 8 9 10 11 12 13
000
FTUS43 KFGF 241138
TAFBJI
TAF
KBJI 241138Z 2412/2512 29007KT P6SM BKN120
     FM241500 30013KT P6SM BKN070
     FM242000 31013KT P6SM VCSH BKN045
     FM250100 31012KT P6SM VCSH BKN015
     FM250300 30008KT P6SM BKN010
     FM250500 31009KT P6SM OVC010=

USA.gov is the U.S. government's official web portal to all federal, state and local government web resources and services.